ETNL/RLG METAR and TAF weather

Enter ICAO airport designator
Station Type Date Time Source
ETNL METAR 2020/04/06 08:20 UTC NOAA

ETNL 060820Z 14010KT 9999 12/M01 Q1022 BLU+BLU+


Station Type Date Time Source
ETNL Decoded METAR 2020/04/06 08:20 UTC NOAA

Laage, Germany (ETNL) 53-55N 012-17E 46M
Apr 06, 2020 - 04:20 AM EDT / 2020.04.06 0820 UTC
Wind: from the SE (140 degrees) at 12 MPH (10 KT):0
Visibility: greater than 7 mile(s):0
Temperature: 53 F (12 C)
Dew Point: 30 F (-1 C)
Relative Humidity: 40%
Pressure (altimeter): 30.18 in. Hg (1022 hPa)
ob: ETNL 060820Z 14010KT 9999 12/M01 Q1022 BLU+BLU+
cycle: 8

Station Type Date Time Source
ETNL TAF 2019/06/10 05:34 UTC NOAA

TAF ETNL 100400Z 1005/1018 06008KT 9999 NSW BKN100
TEMPO 1005/1018 07012KT 6000 -RA BKN050 OVC100 PROB30 1015/1018 VRB15G30KT 3000 TSRA BKN030CB BY ETGL

Example: see airport list